Time;durP1;ratioP1;P1;durP2;ratioP2;P2;SDS_P1;SDS_P2;PMS_P1;PMS_P2;Temp;Humidity;BMP_temperature;BMP_pressure;BME280_temperature;BME280_humidity;BME280_pressure;Samples;Min_cycle;Max_cycle;Signal;HPM_P1;HPM_P2
2021/03/18 00:06:29;;;;;;;1999.90;999.90;;;;;;;1.96;72.72;101992.31;15723081;28;20499;-63
2021/03/18 00:14:02;;;;;;;1999.90;999.90;;;;;;;1.82;73.52;101986.28;15738015;28;20772;-66
2021/03/18 00:21:33;;;;;;;1999.90;999.90;;;;;;;1.66;74.49;101974.09;15718703;28;20048;-63
2021/03/18 00:29:06;;;;;;;1999.90;999.90;;;;;;;1.67;73.77;101973.03;15722417;28;20511;-63
2021/03/18 00:36:37;;;;;;;1999.90;999.90;;;;;;;1.44;74.43;101971.16;15719424;28;20040;-63
2021/03/18 00:44:10;;;;;;;1999.90;999.90;;;;;;;1.41;73.96;101960.63;15697279;28;20040;-64
2021/03/18 00:51:41;;;;;;;1999.90;999.90;;;;;;;1.50;72.58;101955.59;15714233;28;20040;-64
2021/03/18 00:59:14;;;;;;;1999.90;999.90;;;;;;;1.38;73.95;101944.63;15698538;28;20040;-64
2021/03/18 01:06:45;;;;;;;1999.90;999.90;;;;;;;1.41;72.71;101948.81;15719022;28;20044;-64
2021/03/18 01:14:18;;;;;;;1999.90;999.90;;;;;;;1.32;72.48;101948.34;15719649;28;20045;-63
2021/03/18 01:21:51;;;;;;;1999.90;999.90;;;;;;;1.05;73.28;101950.78;15709080;28;20042;-64
2021/03/18 01:29:24;;;;;;;;;;;;;;;1.18;73.05;101938.69;15719959;28;20041;-63
2021/03/18 01:36:55;;;;;;;1999.90;999.90;;;;;;;1.20;73.86;101943.94;15736434;28;19928;-63
2021/03/18 01:44:28;;;;;;;1999.90;999.90;;;;;;;1.42;72.46;101942.22;15718450;28;20053;-64
2021/03/18 01:52:00;;;;;;;1999.90;999.90;;;;;;;1.49;72.64;101945.69;15718922;28;20036;-64
2021/03/18 01:59:32;;;;;;;1999.90;999.90;;;;;;;1.54;72.98;101933.94;15738146;28;20405;-63
2021/03/18 02:07:03;;;;;;;1999.90;999.90;;;;;;;1.49;74.05;101929.19;15749051;28;20425;-64
2021/03/18 02:14:37;;;;;;;1999.90;999.90;;;;;;;1.52;73.37;101927.84;15707394;28;20131;-63
2021/03/18 02:22:36;;;;;;;1999.90;999.90;;;;;;;1.80;72.68;101927.06;15742421;28;20029;-63
2021/03/18 02:30:37;;;;;;;1999.90;999.90;;;;;;;1.77;73.18;101922.84;15743569;28;20033;-65
2021/03/18 02:38:12;;;;;;;1999.90;999.90;;;;;;;1.80;73.33;101927.06;15728186;28;20048;-63
2021/03/18 02:45:47;;;;;;;1999.90;999.90;;;;;;;1.93;72.56;101921.25;15735724;28;20123;-63
2021/03/18 02:53:21;;;;;;;1999.90;999.90;;;;;;;1.78;73.00;101923.72;15728439;28;20425;-63
2021/03/18 03:00:55;;;;;;;1999.90;999.90;;;;;;;1.90;72.99;101913.47;15664213;28;20048;-63
2021/03/18 03:08:28;;;;;;;1999.90;999.90;;;;;;;1.86;73.73;101920.53;15740529;28;20037;-64
2021/03/18 03:16:03;;;;;;;1999.90;999.90;;;;;;;1.89;73.81;101915.41;15722727;28;20045;-64
2021/03/18 03:23:36;;;;;;;1999.90;999.90;;;;;;;1.99;74.24;101904.59;15721268;28;20094;-64
2021/03/18 03:31:08;;;;;;;1999.90;999.90;;;;;;;2.18;73.14;101899.66;15735975;28;20056;-64
2021/03/18 03:38:41;;;;;;;1999.90;999.90;;;;;;;2.28;72.83;101913.63;15717302;28;20439;-64
2021/03/18 03:46:13;;;;;;;1999.90;999.90;;;;;;;2.33;72.95;101906.56;15723852;28;20123;-63
2021/03/18 03:53:51;;;;;;;1999.90;999.90;;;;;;;2.48;72.92;101904.03;15740960;28;20056;-64
2021/03/18 04:01:28;;;;;;;1999.90;999.90;;;;;;;2.51;73.46;101900.81;15740782;28;20079;-64
2021/03/18 04:09:03;;;;;;;1999.90;999.90;;;;;;;2.56;73.60;101906.38;15740432;28;20064;-64
2021/03/18 04:16:36;;;;;;;1999.90;999.90;;;;;;;2.56;73.88;101896.19;15738190;28;20041;-64
2021/03/18 04:24:11;;;;;;;;;;;;;;;2.65;73.94;101885.59;15739383;28;20032;-64
2021/03/18 04:31:43;;;;;;;1999.90;999.90;;;;;;;2.59;73.99;101881.06;15737785;28;20461;-64
2021/03/18 04:39:16;;;;;;;1999.90;999.90;;;;;;;2.58;74.69;101885.75;15738712;28;20071;-64
2021/03/18 04:46:48;;;;;;;1999.90;999.90;;;;;;;2.55;74.65;101879.91;15712668;28;20412;-64
2021/03/18 04:54:20;;;;;;;1999.90;999.90;;;;;;;2.78;73.85;101874.22;15714200;28;20049;-64
2021/03/18 05:01:53;;;;;;;1999.90;999.90;;;;;;;2.83;73.61;101877.06;15729785;28;20530;-64
2021/03/18 05:09:27;;;;;;;1999.90;999.90;;;;;;;2.82;73.82;101875.38;15733795;28;20131;-64
2021/03/18 05:17:00;;;;;;;1999.90;999.90;;;;;;;2.82;74.00;101872.63;15710264;28;20144;-64
2021/03/18 05:24:33;;;;;;;1999.90;999.90;;;;;;;2.89;74.51;101861.41;15700789;28;20523;-64
2021/03/18 05:32:05;;;;;;;1999.90;999.90;;;;;;;3.00;74.10;101865.97;15713744;28;20060;-65
2021/03/18 05:39:37;;;;;;;1999.90;999.90;;;;;;;3.09;73.88;101858.09;15745065;28;20032;-64
2021/03/18 05:47:11;;;;;;;1999.90;999.90;;;;;;;3.02;73.41;101860.19;15728084;28;20084;-64
2021/03/18 05:54:48;;;;;;;1999.90;999.90;;;;;;;3.12;73.97;101863.09;15707908;28;20043;-65
2021/03/18 06:02:19;;;;;;;1999.90;999.90;;;;;;;3.23;73.73;101861.31;15749442;28;20044;-65
2021/03/18 06:09:55;;;;;;;1999.90;999.90;;;;;;;3.29;73.64;101855.59;15737569;28;20500;-63
2021/03/18 06:17:32;;;;;;;1999.90;999.90;;;;;;;3.47;73.07;101848.94;15725141;28;20049;-64
2021/03/18 06:25:07;;;;;;;1999.90;999.90;;;;;;;3.70;72.58;101845.88;15721361;28;20048;-66
2021/03/18 06:32:38;;;;;;;1999.90;999.90;;;;;;;3.61;72.34;101841.06;15745571;28;20049;-65
2021/03/18 06:40:17;;;;;;;1999.90;999.90;;;;;;;3.93;72.11;101841.13;15697667;28;20068;-65
2021/03/18 06:47:51;;;;;;;1999.90;999.90;;;;;;;4.32;71.59;101852.81;15745398;28;20408;-65
2021/03/18 06:55:29;;;;;;;1999.90;999.90;;;;;;;4.50;71.71;101848.81;15743588;28;20528;-65
2021/03/18 07:03:00;;;;;;;1999.90;999.90;;;;;;;4.12;71.82;101847.94;15738365;28;20048;-65
2021/03/18 07:10:35;;;;;;;1999.90;999.90;;;;;;;3.98;72.88;101846.72;15736293;28;20070;-64
2021/03/18 07:18:07;;;;;;;1999.90;999.90;;;;;;;4.25;71.46;101836.44;15737562;28;20139;-65
2021/03/18 07:25:46;;;;;;;1999.90;999.90;;;;;;;4.40;72.24;101833.00;15727044;28;20040;-66
2021/03/18 07:33:20;;;;;;;1999.90;999.90;;;;;;;5.06;72.97;101836.16;15744637;28;20135;-65
2021/03/18 07:40:52;;;;;;;1999.90;999.90;;;;;;;7.55;65.59;101826.22;15709701;28;20076;-66
2021/03/18 07:48:25;;;;;;;1999.90;999.90;;;;;;;8.10;63.25;101830.56;15725713;28;20382;-65
2021/03/18 07:55:58;;;;;;;1999.90;999.90;;;;;;;7.81;63.56;101828.56;15741775;28;20044;-67
2021/03/18 08:03:30;;;;;;;1999.90;999.90;;;;;;;7.28;65.69;101818.28;15742100;28;20064;-67
2021/03/18 08:11:04;;;;;;;1999.90;999.90;;;;;;;6.85;67.54;101809.53;15723799;28;20041;-66
2021/03/18 08:18:38;;;;;;;1999.90;999.90;;;;;;;7.67;64.60;101810.03;15741098;28;20078;-67
2021/03/18 08:26:18;;;;;;;1999.90;999.90;;;;;;;7.94;64.09;101806.81;15741007;28;20051;-65
2021/03/18 08:33:52;;;;;;;1999.90;999.90;;;;;;;8.37;61.83;101796.75;15740390;28;20067;-66
2021/03/18 08:41:27;;;;;;;1999.90;999.90;;;;;;;10.07;60.60;101800.72;15740038;28;20542;-66
2021/03/18 08:49:22;;;;;;;1999.90;999.90;;;;;;;8.82;59.72;101806.56;15738522;28;20044;-66
2021/03/18 08:56:54;;;;;;;1999.90;999.90;;;;;;;8.41;63.06;101803.38;15739648;28;20053;-66
2021/03/18 09:04:35;;;;;;;1999.90;999.90;;;;;;;8.08;64.32;101807.78;15722964;28;20040;-66
2021/03/18 09:12:11;;;;;;;1999.90;999.90;;;;;;;7.72;64.48;101804.44;15737810;28;20046;-66
2021/03/18 09:19:46;;;;;;;1999.90;999.90;;;;;;;7.87;65.15;101795.16;15724949;28;20124;-66
2021/03/18 09:27:19;;;;;;;1999.90;999.90;;;;;;;8.16;65.43;101803.56;15726415;28;20040;-66
2021/03/18 09:34:50;;;;;;;1999.90;999.90;;;;;;;8.28;64.89;101799.28;15742696;28;20044;-66
2021/03/18 09:42:23;;;;;;;1999.90;999.90;;;;;;;7.47;65.86;101809.00;15740655;28;20045;-66
2021/03/18 09:49:55;;;;;;;1999.90;999.90;;;;;;;7.33;68.59;101807.97;15737771;28;20049;-66
2021/03/18 09:57:29;;;;;;;1999.90;999.90;;;;;;;7.07;68.87;101809.19;15719316;28;20048;-64
2021/03/18 10:05:01;;;;;;;1999.90;999.90;;;;;;;7.40;67.83;101802.97;15736878;28;20516;-66
2021/03/18 10:12:33;;;;;;;1999.90;999.90;;;;;;;7.10;66.49;101809.47;15718768;28;20047;-65
2021/03/18 10:20:08;;;;;;;1999.90;999.90;;;;;;;6.78;68.24;101790.44;15719515;28;20516;-65
2021/03/18 10:27:42;;;;;;;1999.90;999.90;;;;;;;7.07;68.73;101784.22;15747726;28;20049;-67
2021/03/18 10:35:17;;;;;;;1999.90;999.90;;;;;;;8.00;68.01;101773.09;15746131;28;20488;-65
2021/03/18 10:42:52;;;;;;;1999.90;999.90;;;;;;;7.84;66.87;101768.78;15746635;28;20074;-66
2021/03/18 10:50:26;;;;;;;1999.90;999.90;;;;;;;8.68;66.98;101758.31;15728831;28;20044;-65
2021/03/18 10:58:02;;;;;;;1999.90;999.90;;;;;;;10.08;63.10;101738.22;15728359;28;20053;-66
2021/03/18 11:05:39;;;;;;;1999.90;999.90;;;;;;;11.13;61.12;101730.09;15745588;28;20071;-67
2021/03/18 11:13:18;;;;;;;1999.90;999.90;;;;;;;11.50;57.40;101732.63;15744648;28;20055;-65
2021/03/18 11:20:50;;;;;;;1999.90;999.90;;;;;;;10.29;59.38;101716.41;15753399;22;20053;-84
2021/03/18 11:28:22;;;;;;;1999.90;999.90;;;;;;;10.35;59.57;101693.72;15795923;28;20048;-84
2021/03/18 11:35:54;;;;;;;1999.90;999.90;;;;;;;9.62;61.62;101690.78;15819012;28;20063;-85
2021/03/18 11:43:27;;;;;;;1999.90;999.90;;;;;;;10.95;59.66;101676.03;15820625;28;20109;-83
2021/03/18 11:51:00;;;;;;;1999.90;999.90;;;;;;;13.03;51.48;101660.59;15801516;28;20063;-86
2021/03/18 11:58:33;;;;;;;1999.90;999.90;;;;;;;12.35;52.04;101651.63;15786377;28;20048;-83
2021/03/18 12:06:05;;;;;;;1999.90;999.90;;;;;;;12.03;51.88;101636.00;15807270;28;20054;-84
2021/03/18 12:13:37;;;;;;;1999.90;999.90;;;;;;;13.42;48.91;101621.22;15811740;28;20709;-85
2021/03/18 12:21:09;;;;;;;1999.90;999.90;;;;;;;12.75;48.69;101621.63;15834588;28;20044;-84
2021/03/18 12:28:41;;;;;;;1999.90;999.90;;;;;;;13.96;47.77;101601.97;15788022;28;20050;-84
2021/03/18 12:36:13;;;;;;;1999.90;999.90;;;;;;;16.54;44.59;101591.78;15805433;28;20055;-84
2021/03/18 12:43:45;;;;;;;1999.90;999.90;;;;;;;17.76;37.44;101587.88;15807936;28;20089;-87
2021/03/18 12:51:17;;;;;;;1999.90;999.90;;;;;;;12.90;47.30;101567.94;15791593;28;20063;-83
2021/03/18 12:58:51;;;;;;;;;;;;;;;11.36;48.79;101557.72;15789212;28;20102;-84
2021/03/18 13:06:23;;;;;;;1999.90;999.90;;;;;;;11.08;50.16;101559.84;15789019;28;20451;-85
2021/03/18 13:13:55;;;;;;;1999.90;999.90;;;;;;;12.46;49.70;101532.63;15824449;28;20036;-85
2021/03/18 13:21:27;;;;;;;1999.90;999.90;;;;;;;16.01;40.57;101525.25;15823300;28;20552;-83
2021/03/18 13:28:59;;;;;;;1999.90;999.90;;;;;;;14.53;41.93;101525.81;15823389;28;20054;-84
2021/03/18 13:36:31;;;;;;;1999.90;999.90;;;;;;;13.19;44.89;101527.25;15822693;28;20056;-83
2021/03/18 13:44:05;;;;;;;1999.90;999.90;;;;;;;10.01;48.80;101537.06;15804845;28;20100;-84
2021/03/18 13:51:37;;;;;;;1999.90;999.90;;;;;;;9.13;53.22;101525.00;15805137;28;20146;-83
2021/03/18 13:59:11;;;;;;;1999.90;999.90;;;;;;;10.88;47.41;101514.50;15794881;28;20040;-86
2021/03/18 14:06:43;;;;;;;1999.90;999.90;;;;;;;10.89;49.98;101509.75;15800134;28;20044;-84
2021/03/18 14:14:15;;;;;;;1999.90;999.90;;;;;;;11.20;50.60;101505.03;15816597;28;20047;-84
2021/03/18 14:22:10;;;;;;;1999.90;999.90;;;;;;;10.97;51.74;101492.22;15792222;28;20040;-84
2021/03/18 14:29:42;;;;;;;1999.90;999.90;;;;;;;10.68;52.80;101484.28;15869509;28;20048;-83
2021/03/18 14:37:14;;;;;;;1999.90;999.90;;;;;;;10.03;51.09;101488.19;15815098;28;20047;-85
2021/03/18 14:44:49;;;;;;;1999.90;999.90;;;;;;;9.86;50.38;101498.31;15828980;28;20089;-84
2021/03/18 14:52:21;;;;;;;1999.90;999.90;;;;;;;8.09;54.82;101514.78;15814770;28;20089;-84
2021/03/18 14:59:53;;;;;;;1999.90;999.90;;;;;;;7.45;61.43;101508.53;15801451;28;20131;-84
2021/03/18 15:07:25;;;;;;;1999.90;999.90;;;;;;;7.27;62.69;101484.28;15797374;28;20043;-84
2021/03/18 15:14:58;;;;;;;1999.90;999.90;;;;;;;6.92;63.81;101468.78;15811903;28;20068;-83
2021/03/18 15:22:33;;;;;;;1999.90;999.90;;;;;;;6.83;64.16;101451.94;15812512;28;20040;-83
2021/03/18 15:30:08;;;;;;;1999.90;999.90;;;;;;;7.12;63.36;101446.41;15827511;28;20063;-85
2021/03/18 15:37:43;;;;;;;1999.90;999.90;;;;;;;7.23;63.51;101436.03;15824786;28;20055;-84
2021/03/18 15:45:18;;;;;;;1999.90;999.90;;;;;;;7.28;63.58;101413.75;15789807;28;20484;-84
2021/03/18 15:52:50;;;;;;;1999.90;999.90;;;;;;;6.99;64.04;101402.69;15824319;28;20068;-85
2021/03/18 16:00:24;;;;;;;1999.90;999.90;;;;;;;7.01;64.41;101378.25;15806091;28;20058;-85
2021/03/18 16:07:59;;;;;;;1999.90;999.90;;;;;;;7.26;64.99;101385.47;15808360;28;20042;-83
2021/03/18 16:15:35;;;;;;;1999.90;999.90;;;;;;;6.99;64.47;101382.44;15798768;28;20044;-87
2021/03/18 16:23:12;;;;;;;1999.90;999.90;;;;;;;6.94;65.77;101378.56;15784194;28;20042;-87
2021/03/18 16:30:46;;;;;;;1999.90;999.90;;;;;;;7.26;65.54;101373.53;15789460;28;20040;-85
2021/03/18 16:38:18;;;;;;;1999.90;999.90;;;;;;;7.50;65.20;101377.13;15808587;28;20040;-85
2021/03/18 16:45:50;;;;;;;1999.90;999.90;;;;;;;7.46;64.42;101384.41;15777103;28;20108;-87
2021/03/18 16:53:22;;;;;;;1999.90;999.90;;;;;;;7.44;64.01;101379.16;15780185;28;20487;-85
2021/03/18 17:00:55;;;;;;;1999.90;999.90;;;;;;;7.32;64.09;101381.53;15781554;28;20044;-84
2021/03/18 17:08:26;;;;;;;1999.90;999.90;;;;;;;7.42;63.23;101375.84;15795470;28;20075;-85
2021/03/18 17:16:01;;;;;;;1999.90;999.90;;;;;;;7.30;62.46;101380.16;15811495;28;20048;-84
2021/03/18 17:23:34;;;;;;;1999.90;999.90;;;;;;;7.58;62.33;101370.09;15842039;28;20074;-83
2021/03/18 17:31:08;;;;;;;1999.90;999.90;;;;;;;7.28;62.39;101366.56;15838480;28;20038;-81
2021/03/18 17:38:40;;;;;;;1999.90;999.90;;;;;;;7.20;62.23;101381.09;15834699;28;20067;-83
2021/03/18 17:46:12;;;;;;;1999.90;999.90;;;;;;;7.26;62.11;101381.84;15772621;28;20578;-81
2021/03/18 17:53:51;;;;;;;1999.90;999.90;;;;;;;6.94;61.81;101386.91;15791776;28;20052;-81
2021/03/18 18:01:24;;;;;;;1999.90;999.90;;;;;;;7.19;60.62;101371.94;15790959;28;20040;-84
2021/03/18 18:08:55;;;;;;;1999.90;999.90;;;;;;;7.24;59.18;101363.56;15811769;28;20055;-84
2021/03/18 18:16:28;;;;;;;1999.90;999.90;;;;;;;7.48;58.90;101366.31;15800982;28;20506;-84
2021/03/18 18:23:59;;;;;;;1999.90;999.90;;;;;;;7.23;60.35;101366.63;15783513;28;20127;-83
2021/03/18 18:31:33;;;;;;;1999.90;999.90;;;;;;;6.58;62.59;101374.50;15798720;28;20059;-84
2021/03/18 18:39:09;;;;;;;1999.90;999.90;;;;;;;6.86;62.28;101381.16;15781226;28;20044;-83
2021/03/18 18:46:43;;;;;;;1999.90;999.90;;;;;;;6.88;61.81;101387.25;15802589;28;20057;-84
2021/03/18 18:54:14;;;;;;;1999.90;999.90;;;;;;;7.12;60.83;101399.22;15788880;28;20040;-83
2021/03/18 19:01:47;;;;;;;1999.90;999.90;;;;;;;6.95;60.17;101394.09;15794423;28;20036;-84
2021/03/18 19:09:19;;;;;;;1999.90;999.90;;;;;;;6.60;61.33;101408.31;15819270;28;20131;-85
2021/03/18 19:16:52;;;;;;;1999.90;999.90;;;;;;;6.74;59.97;101402.91;15800998;28;20044;-83
2021/03/18 19:24:24;;;;;;;1999.90;999.90;;;;;;;6.62;61.30;101406.88;15774344;28;20078;-83
2021/03/18 19:31:56;;;;;;;1999.90;999.90;;;;;;;6.72;62.46;101410.69;15820731;28;20089;-82
2021/03/18 19:39:29;;;;;;;1999.90;999.90;;;;;;;6.23;64.49;101390.25;15824228;28;20034;-83
2021/03/18 19:47:02;;;;;;;1999.90;999.90;;;;;;;5.96;66.92;101384.34;15827730;28;20040;-82
2021/03/18 19:54:53;;;;;;;1999.90;999.90;;;;;;;6.29;66.50;101389.13;15804073;28;20287;-85
2021/03/18 20:02:26;;;;;;;1999.90;999.90;;;;;;;6.30;67.59;101392.72;15795890;28;20047;-82
2021/03/18 20:09:58;;;;;;;1999.90;999.90;;;;;;;6.53;67.23;101399.47;15799095;28;20162;-85
2021/03/18 20:17:34;;;;;;;1999.90;999.90;;;;;;;6.36;68.14;101397.13;15820044;28;20155;-82
2021/03/18 20:25:08;;;;;;;1999.90;999.90;;;;;;;5.99;68.15;101387.38;15811747;28;20044;-84
2021/03/18 20:32:40;;;;;;;1999.90;999.90;;;;;;;5.63;69.58;101394.19;15849002;27;20043;-81
2021/03/18 20:40:15;;;;;;;1999.90;999.90;;;;;;;5.30;71.06;101374.34;15845402;28;20075;-82
2021/03/18 20:47:48;;;;;;;1999.90;999.90;;;;;;;5.20;72.07;101385.47;15845805;28;20066;-82
2021/03/18 20:55:21;;;;;;;1999.90;999.90;;;;;;;5.36;72.38;101386.25;15855301;28;20115;-81
2021/03/18 21:02:54;;;;;;;1999.90;999.90;;;;;;;5.89;70.94;101376.31;15872703;28;20051;-82
2021/03/18 21:10:30;;;;;;;1999.90;999.90;;;;;;;5.77;70.33;101360.03;15837250;28;20055;-80
2021/03/18 21:18:05;;;;;;;1999.90;999.90;;;;;;;5.74;71.29;101370.88;15855349;28;20032;-81
2021/03/18 21:25:38;;;;;;;1999.90;999.90;;;;;;;5.88;71.20;101380.22;15854409;28;20040;-80
2021/03/18 21:33:12;;;;;;;1999.90;999.90;;;;;;;5.84;70.99;101379.13;15844268;28;20036;-84
2021/03/18 21:40:46;;;;;;;1999.90;999.90;;;;;;;5.89;71.58;101370.78;15826893;28;20044;-82
2021/03/18 21:48:18;;;;;;;1999.90;999.90;;;;;;;5.83;71.82;101388.53;15823724;28;20056;-80
2021/03/18 21:55:50;;;;;;;1999.90;999.90;;;;;;;5.05;74.62;101391.03;15798800;28;20051;-81
2021/03/18 22:03:23;;;;;;;1999.90;999.90;;;;;;;4.75;75.79;101400.19;15809911;28;20115;-82
2021/03/18 22:10:55;;;;;;;1999.90;999.90;;;;;;;4.49;77.11;101396.63;15785259;28;20047;-84
2021/03/18 22:18:27;;;;;;;1999.90;999.90;;;;;;;4.41;77.83;101406.28;15784774;28;20044;-80
2021/03/18 22:25:59;;;;;;;1999.90;999.90;;;;;;;4.29;78.44;101406.56;15789304;28;20040;-85
2021/03/18 22:33:32;;;;;;;1999.90;999.90;;;;;;;4.61;77.04;101395.25;15810024;28;20564;-83
2021/03/18 22:41:04;;;;;;;1999.90;999.90;;;;;;;5.14;75.25;101397.66;15783632;28;20143;-82
2021/03/18 22:48:38;;;;;;;1999.90;999.90;;;;;;;5.42;74.38;101401.75;15792975;28;20040;-82
2021/03/18 22:56:10;;;;;;;1999.90;999.90;;;;;;;4.82;75.36;101392.47;15818037;28;20052;-82
2021/03/18 23:03:43;;;;;;;1999.90;999.90;;;;;;;4.51;77.56;101395.25;15800147;28;20431;-82
2021/03/18 23:11:14;;;;;;;1999.90;999.90;;;;;;;4.75;77.51;101384.44;15826172;22;20137;-74
2021/03/18 23:19:01;;;;;;;1999.90;999.90;;;;;;;3.87;77.90;101387.41;15764658;28;20059;-74
2021/03/18 23:26:33;;;;;;;1999.90;999.90;;;;;;;3.45;78.95;101393.06;15768878;28;20203;-74
2021/03/18 23:34:05;;;;;;;1999.90;999.90;;;;;;;3.11;79.50;101421.00;15762401;28;20518;-74
2021/03/18 23:41:37;;;;;;;1999.90;999.90;;;;;;;3.17;79.15;101408.06;15749479;28;20543;-74
2021/03/18 23:49:10;;;;;;;1999.90;999.90;;;;;;;3.82;76.38;101415.00;15760505;28;20270;-74
2021/03/18 23:56:42;;;;;;;1999.90;999.90;;;;;;;4.07;74.96;101413.44;15781596;28;20044;-75
